• Join FlightAware (Why Join?)
  • Login
  • US Flag 
 
01:16AM EST


 

Airport Tracker/Info


-or-


 

Live Flight TrackerFlight Track Log ✈ FLG3735 ✈ 15-May-2013 ✈ KDTW - KALB

Flight Track Log - Related Links

Times and Time Zones

All times are in EDT time to prevent confusion due to time zone crossing. See the FLG3735 flight status page for this flight to view local times or setup timezone preferences in your user account.

Time Position Orientation Groundspeed Altitude Reporting Facility
EDT Latitude Longitude Course Direction KTS MPH feet Rate Location/Type
10:04PM 42.2017 -83.3583 94° East 158 182 1,200  Level Cleveland Center
10:05PM 42.1433 -83.3528 176° South 222 255 3,100 1,680 Climbing Cleveland Center
10:05PM 42.1108 -83.3150 139° Southeast 259 298 4,400 1,620 Climbing Cleveland Center
10:06PM 42.1114 -83.2897 88° East 283 326 4,800 1,860 Climbing Cleveland Center
10:06PM 42.1275 -83.2233 72° East 290 334 6,300 2,580 Climbing Cleveland Center
10:07PM 42.3222 -82.6953 82° East  Level FlightAware Approximate
10:07PM 42.1453 -83.1736 64° Northeast 298 343 7,700  Level Cleveland Center
10:07PM 42.1617 -83.1042 72° East 302 348 8,900 2,040 Climbing Cleveland Center
10:08PM 42.3466 -82.5301 71° East  Level FlightAware Approximate
10:08PM 42.1972 -82.9936 67° East 321 369 11,000  Level Cleveland Center
10:09PM 42.3649 -82.3686 94° East  Level FlightAware Approximate
10:09PM 42.2372 -82.8689 67° East 333 383 12,200  Level Cleveland Center
10:10PM 42.2797 -82.7328 67° East 364 419 14,000 1,800 Climbing Cleveland Center
10:11PM 42.3217 -82.5939 68° East 384 442 15,900 1,920 Climbing Cleveland Center
10:12PM 42.3658 -82.4519 67° East 398 458 17,900 1,440 Climbing Cleveland Center
10:13PM 42.3619 -82.2944 92° East 405 466 18,800 1,020 Climbing Cleveland Center
10:14PM 42.3561 -82.1286 93° East 415 478 20,000 900 Climbing Cleveland Center
10:15PM 42.3456 -81.9597 95° East 442 509 20,700 720 Climbing Cleveland Center
10:16PM 42.3392 -81.7911 93° East 447 514 21,500 660 Climbing Cleveland Center
10:17PM 42.3325 -81.6364 93° East 459 528 22,100 660 Climbing Cleveland Center
10:18PM 42.3233 -81.4594 94° East 464 534 22,900 780 Climbing Cleveland Center
10:19PM 42.3164 -81.2825 93° East 469 540 23,700 840 Climbing Cleveland Center
10:20PM 42.3069 -81.1081 94° East 469 540 24,600 840 Climbing Cleveland Center
10:21PM 42.2992 -80.9311 93° East 469 540 25,400 780 Climbing Cleveland Center
10:22PM 42.2872 -80.7403 95° East 464 534 26,200 780 Climbing Cleveland Center
10:23PM 42.2789 -80.5636 94° East 464 534 27,000 660 Climbing Cleveland Center
10:24PM 42.2683 -80.3867 95° East 464 534 27,600 600 Climbing Cleveland Center
10:25PM 42.2742 -80.2072 87° East 470 541 28,200 540 Climbing Cleveland Center
10:26PM 42.2922 -80.0275 82° East 476 548 28,700 480 Climbing Cleveland Center
10:27PM 42.3100 -79.8672 81° East 476 548 29,200 480 Climbing Cleveland Center
10:28PM 42.3275 -79.6872 82° East 481 554 29,700 480 Climbing Cleveland Center
10:29PM 42.3467 -79.5044 82° East 481 554 30,200 480 Climbing Cleveland Center
10:30PM 42.3636 -79.3186 83° East 486 559 30,700 360 Climbing Cleveland Center
10:31PM 42.3803 -79.1383 83° East 486 559 31,000 120 Climbing Cleveland Center
10:32PM 42.3967 -78.9497 83° East 486 559 31,000  Level Cleveland Center
10:33PM 42.4144 -78.7608 83° East 497 572 31,000  Level Cleveland Center
10:34PM 42.4322 -78.5717 83° East 503 579 31,000  Level Cleveland Center
10:35PM 42.4497 -78.3883 83° East 503 579 31,000  Level Cleveland Center
10:36PM 42.4647 -78.2019 84° East 498 573 31,000  Level Cleveland Center
10:37PM 42.4792 -78.0014 84° East 498 573 31,000  Level Cleveland Center
10:38PM 42.4925 -77.8544 83° East 498 573 31,000  Level Cleveland Center
10:39PM 42.5086 -77.6539 84° East 498 573 31,000  Level Cleveland Center
10:41PM 42.5358 -77.3044 84° East 496 571 31,000 -120 Level Boston Center
10:42PM 42.5500 -77.1167 84° East 496 571 30,800 -900 Descending Boston Center
10:43PM 42.5642 -76.9231 84° East 502 578 29,300 -900 Descending Boston Center
10:44PM 42.5778 -76.7322 84° East 507 583 29,000 -180 Descending Boston Center
10:45PM 42.5931 -76.5414 84° East 507 583 29,000  Level Boston Center
10:46PM 42.6061 -76.3475 85° East 512 589 29,000  Level Boston Center
10:47PM 42.6186 -76.1647 85° East 523 602 29,000  Level Boston Center
10:48PM 42.6289 -75.9706 86° East 523 602 29,000 -240 Level Boston Center
10:49PM 42.6414 -75.7708 85° East 523 602 28,600 -1,620 Descending Boston Center
10:50PM 42.6531 -75.5794 85° East 518 596 25,800 -2,460 Descending Boston Center
10:51PM 42.6633 -75.4303 85° East 511 588 23,700 -2,580 Descending Boston Center
10:52PM 42.6750 -75.2161 86° East 491 565 20,700 -2,700 Descending Boston Center
10:53PM 42.6853 -75.0500 85° East 464 534 18,300 -2,400 Descending Boston Center
10:54PM 42.6950 -74.8894 85° East 440 506 15,900 -2,400 Descending Boston Center
10:55PM 42.6972 -74.7822 88° East 414 476 14,500 -2,280 Descending Boston Center
10:55PM 42.7025 -74.7258 83° East 403 464 13,700 -2,040 Descending Boston Center
10:56PM 42.7094 -74.5903 86° East 388 447 11,900 -1,440 Descending Boston Center
10:57PM 42.7206 -74.4353 84° East 380 437 10,900 -1,380 Descending Boston Center
10:58PM 42.7392 -74.3144 78° East 332 382 9,000 -1,800 Descending Boston Center
10:59PM 42.7517 -74.1989 82° East 326 375 7,300 -1,860 Descending Boston Center
11:00PM 42.7781 -74.0892 72° East 305 351 5,300 -1,800 Descending Boston Center
11:01PM 42.8044 -74.0050 67° East 286 329 3,800 -1,500 Descending Boston Center